Página principal
METAR-TAF:

METAR-TAF

Aeroportos :

El Aaiún, Marrocos

latitude: 27-10N, longitude: 013-12-59W, altura: 6 m

Observação actual do tempo

O boletim foi feito há 45 minutos, às 03:00 UTC
Vento 13 kt de norte
Temperatura 20°C
Humidade 100%
Pressão 1014 hPa
Visibilidade: 8000 m
Encobertoa uma altura de 1500 ft

METAR: GMML 230300Z 01013KT 8000 OVC015 20/20 Q1014 NOSIG

Hora: 04:45 (03:45 UTC)

Previsão

O boletim foi feito há 4 horas e 45 minutos, às 23:00 UTC
Previsão válida de 23 às 00 UTC a 24 às 06 UTC
Vento 16 kt de nor-nordeste
Visibilidade: 8000 m
Nuvens fragmentadasa uma altura de 600 ft
Tornando-se
de 23 às 10 UTC a 23 às 12 UTC
Nuvens dispersasa uma altura de 3000 ft

TAF: GMML 222300Z 2300/2406 03016KT 8000 BKN006 BECMG 2310/2312 SCT030

Observações e previsões do tempo de mais de 4000 aeroportos (mensagens METAR e TAF).

As estações disponíveis são os pontos amarelos e vermelhos sobre o mapa.

Mova o rato sobre o mapa para ver o nome da estação.

Depois clique no ponto para visualizar as observações e previsões meteorológicas.

Para alterar o mapa : clique nos botões verdes com uma cruz preta para aumentar o zoom; no botão verde com uma pitada de zoom; ou nas setas verdes para mapas adjacentes.


METAR-TAF: